Saturday, July 4, 2015, 4:23 AM EDT

KFYJ, West Point, Middle Peninsula Regional Airport

Location: Shacklefords, VA, United States Lat: 37.521
Local Time: 4:23 AM EDT ( 8:23 GMT) Lon: -76.764
Time Zone: US/Eastern Elev: 22 ft

Show me the last for .
Show Decoded

2015-07-04 04:15 METAR KFYJ 040815Z AUTO 35003KT 4SM BKN041 BKN075 23/22 A2984 RMK AO2 T02340219
                 =
2015-07-04 03:55 METAR KFYJ 040755Z AUTO 00000KT 5SM SCT013 SCT025 BKN075 23/22 A2985 RMK AO2
                 P0004 T02330218 =
2015-07-04 03:35 METAR KFYJ 040735Z AUTO 07004KT 4SM SCT010 BKN022 OVC042 23/22 A2984 RMK AO2
                 P0004 T02330218 =
2015-07-04 03:15 METAR KFYJ 040715Z AUTO 34004KT 3SM SCT012 BKN027 OVC048 23/22 A2985 RMK AO2
                 P0002 T02340219 =
2015-07-04 02:55 METAR KFYJ 040655Z AUTO 02004KT 1SM BKN006 BKN013 OVC023 23/22 A2986 RMK AO2 VIS
                 1/2V3 P0018 T02310216 =
2015-07-04 02:35 METAR KFYJ 040635Z AUTO 35003KT 3SM BKN030 OVC040 23/22 A2987 RMK AO2 P0005
                 T02300215 =
2015-07-04 02:15 METAR KFYJ 040615Z AUTO 00000KT 2 1/2SM BKN038 OVC044 23/21 A2987 RMK AO2 P0002
                 T02300214 =
2015-07-04 01:55 METAR KFYJ 040555Z AUTO 02003KT 3SM OVC046 23/21 A2987 RMK AO2 P0001 60010
                 T02300213 10238 20227 402980188 =
2015-07-04 01:35 METAR KFYJ 040535Z AUTO 00000KT 4SM SCT039 SCT046 OVC090 23/21 A2988 RMK AO2
                 P0001 T02300212 =
2015-07-04 01:15 METAR KFYJ 040515Z AUTO 05003KT 5SM OVC090 23/21 A2988 RMK AO2 P0001 T02280211 =
2015-07-04 00:55 METAR KFYJ 040455Z AUTO 07003KT 5SM OVC100 23/21 A2989 RMK AO2 P0002 T02290212 =
2015-07-04 00:35 METAR KFYJ 040435Z AUTO 08004KT 5SM SCT041 SCT065 OVC100 23/21 A2989 RMK AO2
                 P0002 T02270210 =
2015-07-04 00:15 METAR KFYJ 040415Z AUTO 08004KT 5SM SCT036 SCT044 BKN075 23/21 A2990 RMK AO2
                 P0001 T02270210 =
2015-07-03 23:35 METAR KFYJ 040335Z AUTO 08003KT 4SM SCT020 BKN033 OVC100 23/21 A2991 RMK AO2
                 P0004 T02280208 =
2015-07-03 23:15 METAR KFYJ 040315Z AUTO 08003KT 5SM SCT038 SCT070 BKN110 23/21 A2992 RMK AO2
                 P0001 T02300208 =
2015-07-03 22:55 METAR KFYJ 040255Z AUTO 09003KT 7SM SCT110 23/21 A2993 RMK AO2 T02300206 =
2015-07-03 22:35 METAR KFYJ 040235Z AUTO 10004KT 7SM BKN110 23/21 A2993 RMK AO2 T02300205 =
2015-07-03 22:15 METAR KFYJ 040215Z AUTO 10006KT 10SM OVC110 23/20 A2993 RMK AO2 T02330201 =
2015-07-03 21:35 METAR KFYJ 040135Z AUTO 10005KT 10SM BKN050 OVC120 24/20 A2993 RMK AO2 T02350197
                 =
2015-07-03 21:15 METAR KFYJ 040115Z AUTO 11005KT 10SM BKN050 BKN120 24/20 A2993 RMK AO2 T02350195
                 =
2015-07-03 20:55 METAR KFYJ 040055Z AUTO 09006KT 10SM SCT055 23/20 A2993 RMK AO2 T02330197 =
2015-07-03 20:35 METAR KFYJ 040035Z AUTO 08006KT 10SM SCT048 SCT055 24/20 A2993 RMK AO2 T02360197
                 =
2015-07-03 20:15 METAR KFYJ 040015Z AUTO 09005KT 10SM BKN048 24/20 A2994 RMK AO2 T02370200 =
2015-07-03 19:35 METAR KFYJ 032335Z AUTO 07005KT 10SM OVC048 24/19 A2993 RMK AO2 T02420193 =
2015-07-03 19:15 METAR KFYJ 032315Z AUTO 09007KT 10SM BKN050 25/19 A2994 RMK AO2 T02480185 =
2015-07-03 18:55 METAR KFYJ 032255Z AUTO 08007KT 10SM SCT050 SCT120 26/18 A2994 RMK AO2 T02550182
                 =
2015-07-03 18:35 METAR KFYJ 032235Z AUTO 09008KT 10SM SCT120 26/18 A2994 RMK AO2 T02600180 =
2015-07-03 18:15 METAR KFYJ 032215Z AUTO 08007KT 10SM CLR 27/18 A2994 RMK AO2 T02650180 =
2015-07-03 17:55 METAR KFYJ 032155Z AUTO 09007KT 10SM SCT120 27/18 A2993 RMK AO2 T02700178 =
2015-07-03 17:35 METAR KFYJ 032135Z AUTO 09007KT 10SM SCT110 28/17 A2993 RMK AO2 T02750174 =
2015-07-03 16:55 METAR KFYJ 032055Z AUTO 12006KT 10SM CLR 28/16 A2994 RMK AO2 T02830160 =
2015-07-03 16:35 METAR KFYJ 032035Z AUTO 10007KT 10SM CLR 29/16 A2995 RMK AO2 T02880158 =
2015-07-03 16:15 METAR KFYJ 032015Z AUTO 10009KT 10SM CLR 28/16 A2996 RMK AO2 T02840161 =
2015-07-03 15:55 METAR KFYJ 031955Z AUTO 10009KT 10SM CLR 29/16 A2996 RMK AO2 T02900161 =
2015-07-03 15:35 METAR KFYJ 031935Z AUTO 10006KT 10SM CLR 29/15 A2996 RMK AO2 T02940149 =
2015-07-03 15:15 METAR KFYJ 031915Z AUTO 11006KT 10SM CLR 29/16 A2997 RMK AO2 T02910160 =
2015-07-03 14:55 METAR KFYJ 031855Z AUTO 14005KT 10SM CLR 29/14 A2997 RMK AO2 T02880143 =
2015-07-03 14:35 METAR KFYJ 031835Z AUTO 11008KT 10SM CLR 29/15 A2998 RMK AO2 T02920149 =
2015-07-03 14:15 METAR KFYJ 031815Z AUTO 13006KT 10SM CLR 30/15 A2998 RMK AO2 T02970150 =
2015-07-03 13:55 METAR KFYJ 031755Z AUTO 12003KT 10SM SCT041 29/16 A2998 RMK AO2 T02870156 10288
                 20220 =
2015-07-03 13:35 METAR KFYJ 031735Z AUTO 14004KT 10SM CLR 29/15 A2998 RMK AO2 T02870151 =
2015-07-03 13:15 METAR KFYJ 031715Z AUTO 11006KT 10SM SCT100 29/15 A2999 RMK AO2 T02860145 =
2015-07-03 12:55 METAR KFYJ 031655Z AUTO 08004KT 10SM SCT100 28/17 A2999 RMK AO2 T02820170 =
2015-07-03 12:35 METAR KFYJ 031635Z AUTO 10004KT 10SM SCT030 28/17 A3000 RMK AO2 T02750172 =
2015-07-03 12:15 METAR KFYJ 031615Z AUTO 14004KT 10SM SCT027 SCT038 28/19 A3000 RMK AO2 T02760193
                 =
2015-07-03 11:55 METAR KFYJ 031555Z AUTO 00000KT 10SM SCT033 SCT039 27/19 A3001 RMK AO2 T02680186
                 =
2015-07-03 11:35 METAR KFYJ 031535Z AUTO 16003KT 10SM SCT026 SCT033 SCT041 27/18 A3000 RMK AO2
                 T02650184 =
2015-07-03 11:15 METAR KFYJ 031515Z AUTO 15004KT 10SM SCT020 BKN030 BKN037 26/19 A3000 RMK AO2
                 T02630191 =
2015-07-03 10:55 METAR KFYJ 031455Z AUTO 00000KT 10SM SCT020 SCT030 SCT038 26/19 A3001 RMK AO2
                 T02640190 =
2015-07-03 10:35 METAR KFYJ 031435Z AUTO 17005KT 10SM SCT022 SCT027 SCT032 26/19 A3001 RMK AO2
                 T02590188 =
2015-07-03 10:15 METAR KFYJ 031415Z AUTO 12003KT 10SM SCT023 SCT030 26/18 A3001 RMK AO2 T02550181
                 =
2015-07-03 09:55 METAR KFYJ 031355Z AUTO 10003KT 10SM SCT021 SCT027 26/18 A3001 RMK AO2 T02560184
                 =
2015-07-03 09:35 METAR KFYJ 031335Z AUTO 00000KT 10SM SCT017 25/19 A3001 RMK AO2 T02540189 =
2015-07-03 09:15 METAR KFYJ 031315Z AUTO 11003KT 7SM CLR 25/19 A3001 RMK AO2 T02490194 =
2015-07-03 08:55 METAR KFYJ 031255Z AUTO 00000KT 7SM CLR 25/20 A3001 RMK AO2 T02450198 =
2015-07-03 08:35 METAR KFYJ 031235Z AUTO 05003KT 5SM CLR 24/20 A2999 RMK AO2 T02370202 =
2015-07-03 08:15 METAR KFYJ 031215Z AUTO 00000KT 4SM CLR 23/21 A2999 RMK AO2 T02310207 =
2015-07-03 07:55 METAR KFYJ 031155Z AUTO 00000KT 4SM CLR 22/20 A2998 RMK AO2 70007 T02200204
                 10220 20188 =
2015-07-03 07:35 METAR KFYJ 031135Z AUTO 00000KT 3SM CLR 21/20 A2997 RMK AO2 T02110197 =
2015-07-03 07:15 METAR KFYJ 031115Z AUTO 00000KT 3SM CLR 21/19 A2997 RMK AO2 T02060192 =
2015-07-03 06:55 METAR KFYJ 031055Z AUTO 00000KT 3SM CLR 20/19 A2997 RMK AO2 T01990186 =
2015-07-03 06:35 METAR KFYJ 031035Z AUTO 00000KT 2 1/2SM CLR 20/19 A2997 RMK AO2 T02000186 =
2015-07-03 06:15 METAR KFYJ 031015Z AUTO 00000KT 2SM CLR 20/19 A2996 RMK AO2 T02000186 =
2015-07-03 05:55 METAR KFYJ 030955Z AUTO 00000KT 2SM CLR 20/19 A2994 RMK AO2 T01990185 =
2015-07-03 05:35 METAR KFYJ 030935Z AUTO 34003KT 2 1/2SM CLR 20/18 A2994 RMK AO2 T01950182 =
2015-07-03 05:15 METAR KFYJ 030915Z AUTO 00000KT 3SM CLR 19/18 A2993 RMK AO2 T01910178 =
2015-07-03 04:55 METAR KFYJ 030855Z AUTO 00000KT 3SM CLR 20/18 A2993 RMK AO2 T01980184 =
2015-07-03 04:35 METAR KFYJ 030835Z AUTO 00000KT 2 1/2SM SCT120 20/19 A2993 RMK AO2 T02030190 =

Support USWX by starting your Amazon purchase here.